sensor_id;sensor_type;location;lat;lon;timestamp;P1;durP1;ratioP1;P2;durP2;ratioP2
73951;SDS011;62304;47.662;18.324;2022-10-28T00:00:46;66.53;;;13.10;;
73951;SDS011;62304;47.662;18.324;2022-10-28T00:03:53;45.88;;;12.85;;
73951;SDS011;62304;47.662;18.324;2022-10-28T00:06:57;29.90;;;11.32;;
73951;SDS011;62304;47.662;18.324;2022-10-28T00:10:01;32.67;;;12.18;;
73951;SDS011;62304;47.662;18.324;2022-10-28T00:13:05;35.83;;;12.37;;
73951;SDS011;62304;47.662;18.324;2022-10-28T00:16:09;27.53;;;12.90;;
73951;SDS011;62304;47.662;18.324;2022-10-28T00:19:17;38.70;;;11.77;;
73951;SDS011;62304;47.662;18.324;2022-10-28T00:22:19;30.45;;;12.10;;
73951;SDS011;62304;47.662;18.324;2022-10-28T00:25:25;43.42;;;12.02;;
73951;SDS011;62304;47.662;18.324;2022-10-28T00:28:28;33.63;;;12.17;;
73951;SDS011;62304;47.662;18.324;2022-10-28T00:31:31;27.90;;;10.30;;
73951;SDS011;62304;47.662;18.324;2022-10-28T00:34:35;34.42;;;11.07;;
73951;SDS011;62304;47.662;18.324;2022-10-28T00:37:38;26.52;;;10.90;;
73951;SDS011;62304;47.662;18.324;2022-10-28T00:40:41;34.17;;;10.77;;
73951;SDS011;62304;47.662;18.324;2022-10-28T00:46:49;31.80;;;11.73;;
73951;SDS011;62304;47.662;18.324;2022-10-28T00:50:00;42.55;;;12.43;;
73951;SDS011;62304;47.662;18.324;2022-10-28T00:53:15;42.47;;;11.70;;
73951;SDS011;62304;47.662;18.324;2022-10-28T00:56:23;31.23;;;12.65;;
73951;SDS011;62304;47.662;18.324;2022-10-28T00:59:30;29.67;;;11.57;;
73951;SDS011;62304;47.662;18.324;2022-10-28T01:02:39;38.27;;;12.50;;
73951;SDS011;62304;47.662;18.324;2022-10-28T01:05:46;31.98;;;13.50;;
73951;SDS011;62304;47.662;18.324;2022-10-28T01:08:50;68.10;;;11.40;;
73951;SDS011;62304;47.662;18.324;2022-10-28T01:12:03;84.90;;;13.18;;
73951;SDS011;62304;47.662;18.324;2022-10-28T01:18:48;52.17;;;11.03;;
73951;SDS011;62304;47.662;18.324;2022-10-28T01:22:19;50.88;;;11.60;;
73951;SDS011;62304;47.662;18.324;2022-10-28T01:32:26;92.93;;;13.23;;
73951;SDS011;62304;47.662;18.324;2022-10-28T01:35:54;78.57;;;12.53;;
73951;SDS011;62304;47.662;18.324;2022-10-28T01:39:11;61.13;;;12.05;;
73951;SDS011;62304;47.662;18.324;2022-10-28T01:42:21;41.35;;;11.55;;
73951;SDS011;62304;47.662;18.324;2022-10-28T01:45:50;49.17;;;11.88;;
73951;SDS011;62304;47.662;18.324;2022-10-28T01:49:00;28.63;;;11.97;;
73951;SDS011;62304;47.662;18.324;2022-10-28T01:52:11;39.37;;;11.83;;
73951;SDS011;62304;47.662;18.324;2022-10-28T01:55:25;39.75;;;11.15;;
73951;SDS011;62304;47.662;18.324;2022-10-28T01:58:30;37.67;;;12.35;;
73951;SDS011;62304;47.662;18.324;2022-10-28T02:01:34;39.80;;;12.25;;
73951;SDS011;62304;47.662;18.324;2022-10-28T02:04:40;34.13;;;12.33;;
73951;SDS011;62304;47.662;18.324;2022-10-28T02:07:42;43.73;;;13.00;;
73951;SDS011;62304;47.662;18.324;2022-10-28T02:10:50;39.90;;;12.98;;
73951;SDS011;62304;47.662;18.324;2022-10-28T02:14:12;48.63;;;12.35;;
73951;SDS011;62304;47.662;18.324;2022-10-28T02:21:00;51.30;;;12.97;;
73951;SDS011;62304;47.662;18.324;2022-10-28T02:24:09;45.00;;;12.47;;
73951;SDS011;62304;47.662;18.324;2022-10-28T02:27:32;38.47;;;12.37;;
73951;SDS011;62304;47.662;18.324;2022-10-28T02:33:42;58.87;;;12.45;;
73951;SDS011;62304;47.662;18.324;2022-10-28T02:36:49;59.67;;;11.70;;
73951;SDS011;62304;47.662;18.324;2022-10-28T02:39:56;36.27;;;12.20;;
73951;SDS011;62304;47.662;18.324;2022-10-28T02:43:02;24.45;;;11.18;;
73951;SDS011;62304;47.662;18.324;2022-10-28T02:46:07;23.67;;;10.95;;
73951;SDS011;62304;47.662;18.324;2022-10-28T02:49:12;22.40;;;11.10;;
73951;SDS011;62304;47.662;18.324;2022-10-28T02:52:16;25.30;;;11.40;;
73951;SDS011;62304;47.662;18.324;2022-10-28T02:55:23;27.97;;;12.00;;
73951;SDS011;62304;47.662;18.324;2022-10-28T02:58:40;25.95;;;12.25;;
73951;SDS011;62304;47.662;18.324;2022-10-28T03:01:43;36.42;;;12.75;;
73951;SDS011;62304;47.662;18.324;2022-10-28T03:04:46;27.23;;;12.65;;
73951;SDS011;62304;47.662;18.324;2022-10-28T03:07:49;28.93;;;13.00;;
73951;SDS011;62304;47.662;18.324;2022-10-28T03:10:53;45.93;;;13.73;;
73951;SDS011;62304;47.662;18.324;2022-10-28T03:13:56;53.35;;;13.13;;
73951;SDS011;62304;47.662;18.324;2022-10-28T03:16:59;36.38;;;13.43;;
73951;SDS011;62304;47.662;18.324;2022-10-28T03:20:02;38.83;;;14.48;;
73951;SDS011;62304;47.662;18.324;2022-10-28T03:23:05;29.83;;;12.73;;
73951;SDS011;62304;47.662;18.324;2022-10-28T03:26:08;45.73;;;14.17;;
73951;SDS011;62304;47.662;18.324;2022-10-28T03:29:10;44.38;;;13.32;;
73951;SDS011;62304;47.662;18.324;2022-10-28T03:32:13;37.40;;;12.57;;
73951;SDS011;62304;47.662;18.324;2022-10-28T03:35:16;35.17;;;13.70;;
73951;SDS011;62304;47.662;18.324;2022-10-28T03:38:19;35.17;;;12.90;;
73951;SDS011;62304;47.662;18.324;2022-10-28T03:41:22;30.63;;;13.53;;
73951;SDS011;62304;47.662;18.324;2022-10-28T03:44:27;34.95;;;13.68;;
73951;SDS011;62304;47.662;18.324;2022-10-28T03:47:30;30.90;;;12.18;;
73951;SDS011;62304;47.662;18.324;2022-10-28T03:50:33;38.50;;;11.32;;
73951;SDS011;62304;47.662;18.324;2022-10-28T03:53:35;49.13;;;10.20;;
73951;SDS011;62304;47.662;18.324;2022-10-28T03:56:38;42.37;;;11.87;;
73951;SDS011;62304;47.662;18.324;2022-10-28T03:59:41;64.25;;;12.37;;
73951;SDS011;62304;47.662;18.324;2022-10-28T04:02:50;46.35;;;13.50;;
73951;SDS011;62304;47.662;18.324;2022-10-28T04:05:54;67.10;;;13.35;;
73951;SDS011;62304;47.662;18.324;2022-10-28T04:08:57;42.93;;;12.40;;
73951;SDS011;62304;47.662;18.324;2022-10-28T04:12:00;33.83;;;12.40;;
73951;SDS011;62304;47.662;18.324;2022-10-28T04:15:03;65.80;;;12.55;;
73951;SDS011;62304;47.662;18.324;2022-10-28T04:18:06;70.97;;;13.93;;
73951;SDS011;62304;47.662;18.324;2022-10-28T04:21:09;64.80;;;14.18;;
73951;SDS011;62304;47.662;18.324;2022-10-28T04:24:11;84.83;;;15.43;;
73951;SDS011;62304;47.662;18.324;2022-10-28T04:27:14;71.13;;;14.53;;
73951;SDS011;62304;47.662;18.324;2022-10-28T04:30:17;70.80;;;16.23;;
73951;SDS011;62304;47.662;18.324;2022-10-28T04:33:20;76.72;;;15.82;;
73951;SDS011;62304;47.662;18.324;2022-10-28T04:36:23;91.30;;;16.65;;
73951;SDS011;62304;47.662;18.324;2022-10-28T04:39:25;48.57;;;15.33;;
73951;SDS011;62304;47.662;18.324;2022-10-28T04:42:28;42.90;;;14.93;;
73951;SDS011;62304;47.662;18.324;2022-10-28T04:45:31;50.95;;;21.40;;
73951;SDS011;62304;47.662;18.324;2022-10-28T04:48:34;43.03;;;17.60;;
73951;SDS011;62304;47.662;18.324;2022-10-28T04:51:37;45.25;;;16.62;;
73951;SDS011;62304;47.662;18.324;2022-10-28T04:54:40;45.73;;;17.63;;
73951;SDS011;62304;47.662;18.324;2022-10-28T04:57:42;54.17;;;17.77;;
73951;SDS011;62304;47.662;18.324;2022-10-28T05:00:45;38.72;;;14.95;;
73951;SDS011;62304;47.662;18.324;2022-10-28T05:03:48;38.97;;;16.23;;
73951;SDS011;62304;47.662;18.324;2022-10-28T05:06:51;42.62;;;14.82;;
73951;SDS011;62304;47.662;18.324;2022-10-28T05:09:53;35.47;;;12.83;;
73951;SDS011;62304;47.662;18.324;2022-10-28T05:12:56;60.53;;;15.80;;
73951;SDS011;62304;47.662;18.324;2022-10-28T05:15:59;58.70;;;14.52;;
73951;SDS011;62304;47.662;18.324;2022-10-28T05:19:02;73.57;;;14.90;;
73951;SDS011;62304;47.662;18.324;2022-10-28T05:22:06;59.15;;;14.85;;
73951;SDS011;62304;47.662;18.324;2022-10-28T05:25:10;44.23;;;15.20;;
73951;SDS011;62304;47.662;18.324;2022-10-28T05:28:12;72.90;;;23.50;;
73951;SDS011;62304;47.662;18.324;2022-10-28T05:31:16;55.38;;;20.60;;
73951;SDS011;62304;47.662;18.324;2022-10-28T05:34:19;59.85;;;19.92;;
73951;SDS011;62304;47.662;18.324;2022-10-28T05:37:22;60.15;;;22.15;;
73951;SDS011;62304;47.662;18.324;2022-10-28T05:40:24;59.07;;;18.23;;
73951;SDS011;62304;47.662;18.324;2022-10-28T05:43:27;75.67;;;17.63;;
73951;SDS011;62304;47.662;18.324;2022-10-28T05:46:30;50.45;;;15.00;;
73951;SDS011;62304;47.662;18.324;2022-10-28T05:49:33;50.55;;;14.60;;
73951;SDS011;62304;47.662;18.324;2022-10-28T05:52:36;33.20;;;14.80;;
73951;SDS011;62304;47.662;18.324;2022-10-28T05:55:39;42.17;;;14.70;;
73951;SDS011;62304;47.662;18.324;2022-10-28T05:58:48;48.47;;;15.70;;
73951;SDS011;62304;47.662;18.324;2022-10-28T06:01:56;46.25;;;16.50;;
73951;SDS011;62304;47.662;18.324;2022-10-28T06:04:59;52.40;;;13.88;;
73951;SDS011;62304;47.662;18.324;2022-10-28T06:08:03;59.53;;;14.90;;
73951;SDS011;62304;47.662;18.324;2022-10-28T06:11:06;44.23;;;17.27;;
73951;SDS011;62304;47.662;18.324;2022-10-28T06:14:09;46.67;;;15.30;;
73951;SDS011;62304;47.662;18.324;2022-10-28T06:17:12;55.80;;;15.43;;
73951;SDS011;62304;47.662;18.324;2022-10-28T06:20:15;38.92;;;15.95;;
73951;SDS011;62304;47.662;18.324;2022-10-28T06:23:19;71.55;;;33.65;;
73951;SDS011;62304;47.662;18.324;2022-10-28T06:26:22;87.40;;;18.47;;
73951;SDS011;62304;47.662;18.324;2022-10-28T06:29:25;48.00;;;15.40;;
73951;SDS011;62304;47.662;18.324;2022-10-28T06:32:28;61.37;;;16.77;;
73951;SDS011;62304;47.662;18.324;2022-10-28T06:35:31;60.17;;;17.10;;
73951;SDS011;62304;47.662;18.324;2022-10-28T06:38:33;62.30;;;16.48;;
73951;SDS011;62304;47.662;18.324;2022-10-28T06:41:36;61.07;;;17.70;;
73951;SDS011;62304;47.662;18.324;2022-10-28T06:44:39;45.40;;;16.40;;
73951;SDS011;62304;47.662;18.324;2022-10-28T06:47:41;43.50;;;16.55;;
73951;SDS011;62304;47.662;18.324;2022-10-28T06:50:44;48.78;;;16.73;;
73951;SDS011;62304;47.662;18.324;2022-10-28T06:53:50;41.42;;;15.55;;
73951;SDS011;62304;47.662;18.324;2022-10-28T06:56:54;50.40;;;15.43;;
73951;SDS011;62304;47.662;18.324;2022-10-28T06:59:57;46.87;;;18.43;;
73951;SDS011;62304;47.662;18.324;2022-10-28T07:02:59;48.65;;;18.50;;
73951;SDS011;62304;47.662;18.324;2022-10-28T07:06:03;45.55;;;17.58;;
73951;SDS011;62304;47.662;18.324;2022-10-28T07:09:06;47.75;;;14.55;;
73951;SDS011;62304;47.662;18.324;2022-10-28T07:12:09;42.73;;;15.93;;
73951;SDS011;62304;47.662;18.324;2022-10-28T07:15:12;55.20;;;16.83;;
73951;SDS011;62304;47.662;18.324;2022-10-28T07:18:15;37.05;;;16.55;;
73951;SDS011;62304;47.662;18.324;2022-10-28T07:21:17;42.00;;;18.20;;
73951;SDS011;62304;47.662;18.324;2022-10-28T07:24:24;47.58;;;18.35;;
73951;SDS011;62304;47.662;18.324;2022-10-28T07:27:28;39.17;;;17.70;;
73951;SDS011;62304;47.662;18.324;2022-10-28T07:30:31;39.03;;;16.67;;
73951;SDS011;62304;47.662;18.324;2022-10-28T07:33:35;33.17;;;15.10;;
73951;SDS011;62304;47.662;18.324;2022-10-28T07:36:38;39.75;;;15.90;;
73951;SDS011;62304;47.662;18.324;2022-10-28T07:39:41;33.90;;;14.55;;
73951;SDS011;62304;47.662;18.324;2022-10-28T07:42:44;29.33;;;14.43;;
73951;SDS011;62304;47.662;18.324;2022-10-28T07:45:47;32.43;;;14.80;;
73951;SDS011;62304;47.662;18.324;2022-10-28T07:48:50;29.67;;;14.68;;
73951;SDS011;62304;47.662;18.324;2022-10-28T07:51:52;32.83;;;14.52;;
73951;SDS011;62304;47.662;18.324;2022-10-28T07:54:55;31.00;;;13.80;;
73951;SDS011;62304;47.662;18.324;2022-10-28T07:57:58;33.73;;;14.27;;
73951;SDS011;62304;47.662;18.324;2022-10-28T08:01:03;29.80;;;14.87;;
73951;SDS011;62304;47.662;18.324;2022-10-28T08:04:08;30.52;;;14.30;;
73951;SDS011;62304;47.662;18.324;2022-10-28T08:07:11;27.27;;;13.35;;
73951;SDS011;62304;47.662;18.324;2022-10-28T08:10:15;24.40;;;12.75;;
73951;SDS011;62304;47.662;18.324;2022-10-28T08:13:17;32.83;;;15.07;;
73951;SDS011;62304;47.662;18.324;2022-10-28T08:16:20;30.40;;;14.30;;
73951;SDS011;62304;47.662;18.324;2022-10-28T08:19:23;30.92;;;15.70;;
73951;SDS011;62304;47.662;18.324;2022-10-28T08:22:26;29.58;;;14.45;;
73951;SDS011;62304;47.662;18.324;2022-10-28T08:25:29;33.33;;;14.87;;
73951;SDS011;62304;47.662;18.324;2022-10-28T08:28:32;32.00;;;15.40;;
73951;SDS011;62304;47.662;18.324;2022-10-28T08:31:34;35.23;;;14.83;;
73951;SDS011;62304;47.662;18.324;2022-10-28T08:34:37;36.25;;;15.43;;
73951;SDS011;62304;47.662;18.324;2022-10-28T08:37:49;29.00;;;14.70;;
73951;SDS011;62304;47.662;18.324;2022-10-28T08:44:56;26.70;;;14.47;;
73951;SDS011;62304;47.662;18.324;2022-10-28T08:51:40;29.35;;;13.52;;
73951;SDS011;62304;47.662;18.324;2022-10-28T08:54:51;27.08;;;13.50;;
73951;SDS011;62304;47.662;18.324;2022-10-28T09:01:12;27.13;;;14.10;;
73951;SDS011;62304;47.662;18.324;2022-10-28T09:04:36;39.67;;;15.43;;
73951;SDS011;62304;47.662;18.324;2022-10-28T09:07:41;26.73;;;13.02;;
73951;SDS011;62304;47.662;18.324;2022-10-28T09:20:51;25.73;;;12.43;;
73951;SDS011;62304;47.662;18.324;2022-10-28T09:23:56;17.73;;;8.65;;
73951;SDS011;62304;47.662;18.324;2022-10-28T09:27:05;10.85;;;7.00;;
73951;SDS011;62304;47.662;18.324;2022-10-28T09:30:29;13.07;;;7.30;;
73951;SDS011;62304;47.662;18.324;2022-10-28T09:37:02;12.83;;;5.87;;
73951;SDS011;62304;47.662;18.324;2022-10-28T09:40:14;11.80;;;6.93;;
73951;SDS011;62304;47.662;18.324;2022-10-28T09:43:23;10.05;;;5.85;;
73951;SDS011;62304;47.662;18.324;2022-10-28T09:46:30;12.80;;;7.15;;
73951;SDS011;62304;47.662;18.324;2022-10-28T09:49:38;12.60;;;6.60;;
73951;SDS011;62304;47.662;18.324;2022-10-28T09:52:47;12.27;;;7.20;;
73951;SDS011;62304;47.662;18.324;2022-10-28T09:56:00;10.60;;;5.68;;
73951;SDS011;62304;47.662;18.324;2022-10-28T09:59:05;14.23;;;7.78;;
73951;SDS011;62304;47.662;18.324;2022-10-28T10:05:26;16.87;;;8.13;;
73951;SDS011;62304;47.662;18.324;2022-10-28T10:08:32;11.63;;;6.40;;
73951;SDS011;62304;47.662;18.324;2022-10-28T10:11:39;13.20;;;7.10;;
73951;SDS011;62304;47.662;18.324;2022-10-28T10:14:49;12.37;;;5.65;;
73951;SDS011;62304;47.662;18.324;2022-10-28T10:17:56;18.33;;;8.13;;
73951;SDS011;62304;47.662;18.324;2022-10-28T10:21:01;11.77;;;5.77;;
73951;SDS011;62304;47.662;18.324;2022-10-28T10:24:20;14.63;;;7.50;;
73951;SDS011;62304;47.662;18.324;2022-10-28T10:27:24;11.70;;;5.97;;
73951;SDS011;62304;47.662;18.324;2022-10-28T10:33:35;12.95;;;7.43;;
73951;SDS011;62304;47.662;18.324;2022-10-28T10:36:46;11.67;;;6.63;;
73951;SDS011;62304;47.662;18.324;2022-10-28T10:40:04;10.50;;;6.40;;
73951;SDS011;62304;47.662;18.324;2022-10-28T10:43:20;13.00;;;8.50;;
73951;SDS011;62304;47.662;18.324;2022-10-28T10:46:25;11.15;;;6.82;;
73951;SDS011;62304;47.662;18.324;2022-10-28T10:49:29;10.65;;;7.62;;
73951;SDS011;62304;47.662;18.324;2022-10-28T10:52:32;12.17;;;6.27;;
73951;SDS011;62304;47.662;18.324;2022-10-28T10:55:36;12.80;;;6.87;;
73951;SDS011;62304;47.662;18.324;2022-10-28T10:58:48;7.85;;;5.68;;
73951;SDS011;62304;47.662;18.324;2022-10-28T11:01:56;11.05;;;6.85;;
73951;SDS011;62304;47.662;18.324;2022-10-28T11:05:01;10.27;;;6.70;;
73951;SDS011;62304;47.662;18.324;2022-10-28T11:08:10;9.80;;;6.50;;
73951;SDS011;62304;47.662;18.324;2022-10-28T11:11:33;11.17;;;6.20;;
73951;SDS011;62304;47.662;18.324;2022-10-28T11:14:42;8.52;;;5.80;;
73951;SDS011;62304;47.662;18.324;2022-10-28T11:44:31;12.20;;;7.97;;
73951;SDS011;62304;47.662;18.324;2022-10-28T11:54:36;12.32;;;7.37;;
73951;SDS011;62304;47.662;18.324;2022-10-28T12:12:07;13.90;;;8.60;;
73951;SDS011;62304;47.662;18.324;2022-10-28T12:15:16;11.10;;;6.77;;
73951;SDS011;62304;47.662;18.324;2022-10-28T12:25:06;7.93;;;5.03;;
73951;SDS011;62304;47.662;18.324;2022-10-28T12:28:20;11.30;;;5.95;;
73951;SDS011;62304;47.662;18.324;2022-10-28T12:31:27;9.73;;;5.63;;
73951;SDS011;62304;47.662;18.324;2022-10-28T12:42:08;10.45;;;6.47;;
73951;SDS011;62304;47.662;18.324;2022-10-28T12:45:15;9.48;;;5.90;;
73951;SDS011;62304;47.662;18.324;2022-10-28T12:51:35;9.70;;;6.13;;
73951;SDS011;62304;47.662;18.324;2022-10-28T12:54:53;9.80;;;6.25;;
73951;SDS011;62304;47.662;18.324;2022-10-28T12:58:10;13.00;;;5.90;;
73951;SDS011;62304;47.662;18.324;2022-10-28T13:01:18;11.10;;;6.62;;
73951;SDS011;62304;47.662;18.324;2022-10-28T13:04:26;11.50;;;6.30;;
73951;SDS011;62304;47.662;18.324;2022-10-28T13:18:45;10.40;;;6.80;;
73951;SDS011;62304;47.662;18.324;2022-10-28T13:25:27;14.00;;;7.53;;
73951;SDS011;62304;47.662;18.324;2022-10-28T13:28:56;16.20;;;6.65;;
73951;SDS011;62304;47.662;18.324;2022-10-28T13:32:03;10.73;;;6.10;;
73951;SDS011;62304;47.662;18.324;2022-10-28T13:35:24;13.35;;;7.57;;
73951;SDS011;62304;47.662;18.324;2022-10-28T13:38:29;13.77;;;7.13;;
73951;SDS011;62304;47.662;18.324;2022-10-28T13:41:38;13.73;;;7.03;;
73951;SDS011;62304;47.662;18.324;2022-10-28T13:48:42;12.30;;;7.25;;
73951;SDS011;62304;47.662;18.324;2022-10-28T13:51:32;20.80;;;7.57;;
73951;SDS011;62304;47.662;18.324;2022-10-28T13:57:44;15.97;;;8.70;;
73951;SDS011;62304;47.662;18.324;2022-10-28T14:00:51;13.35;;;6.78;;
73951;SDS011;62304;47.662;18.324;2022-10-28T14:03:55;13.88;;;6.60;;
73951;SDS011;62304;47.662;18.324;2022-10-28T14:10:27;14.13;;;8.10;;
73951;SDS011;62304;47.662;18.324;2022-10-28T14:13:33;13.87;;;6.23;;
73951;SDS011;62304;47.662;18.324;2022-10-28T14:16:49;14.10;;;7.05;;
73951;SDS011;62304;47.662;18.324;2022-10-28T14:19:52;18.05;;;8.00;;
73951;SDS011;62304;47.662;18.324;2022-10-28T14:22:55;19.87;;;9.57;;
73951;SDS011;62304;47.662;18.324;2022-10-28T14:26:00;19.53;;;9.27;;
73951;SDS011;62304;47.662;18.324;2022-10-28T14:29:21;23.90;;;9.10;;
73951;SDS011;62304;47.662;18.324;2022-10-28T14:35:37;18.42;;;9.60;;
73951;SDS011;62304;47.662;18.324;2022-10-28T14:45:29;19.87;;;9.83;;
73951;SDS011;62304;47.662;18.324;2022-10-28T14:48:50;23.15;;;10.20;;
73951;SDS011;62304;47.662;18.324;2022-10-28T14:51:54;30.67;;;11.55;;
73951;SDS011;62304;47.662;18.324;2022-10-28T14:55:06;24.58;;;11.15;;
73951;SDS011;62304;47.662;18.324;2022-10-28T14:58:21;26.30;;;10.77;;
73951;SDS011;62304;47.662;18.324;2022-10-28T15:01:26;28.20;;;12.03;;
73951;SDS011;62304;47.662;18.324;2022-10-28T15:04:34;26.95;;;12.45;;
73951;SDS011;62304;47.662;18.324;2022-10-28T15:07:37;31.05;;;12.57;;
73951;SDS011;62304;47.662;18.324;2022-10-28T15:10:42;26.62;;;12.63;;
73951;SDS011;62304;47.662;18.324;2022-10-28T15:13:51;27.33;;;12.60;;
73951;SDS011;62304;47.662;18.324;2022-10-28T15:16:54;18.63;;;7.90;;
73951;SDS011;62304;47.662;18.324;2022-10-28T15:19:58;26.75;;;11.43;;
73951;SDS011;62304;47.662;18.324;2022-10-28T15:23:18;27.10;;;11.52;;
73951;SDS011;62304;47.662;18.324;2022-10-28T15:26:23;29.27;;;14.70;;
73951;SDS011;62304;47.662;18.324;2022-10-28T15:29:26;31.30;;;17.27;;
73951;SDS011;62304;47.662;18.324;2022-10-28T15:32:30;29.43;;;16.57;;
73951;SDS011;62304;47.662;18.324;2022-10-28T15:35:34;29.30;;;16.02;;
73951;SDS011;62304;47.662;18.324;2022-10-28T15:38:44;66.93;;;25.45;;
73951;SDS011;62304;47.662;18.324;2022-10-28T15:41:48;57.62;;;22.37;;
73951;SDS011;62304;47.662;18.324;2022-10-28T15:44:53;44.00;;;18.17;;
73951;SDS011;62304;47.662;18.324;2022-10-28T15:47:58;49.10;;;35.73;;
73951;SDS011;62304;47.662;18.324;2022-10-28T15:51:12;46.35;;;20.83;;
73951;SDS011;62304;47.662;18.324;2022-10-28T15:54:19;39.13;;;18.23;;
73951;SDS011;62304;47.662;18.324;2022-10-28T15:57:23;38.10;;;17.30;;
73951;SDS011;62304;47.662;18.324;2022-10-28T16:00:30;37.23;;;16.40;;
73951;SDS011;62304;47.662;18.324;2022-10-28T16:06:48;33.83;;;17.48;;
73951;SDS011;62304;47.662;18.324;2022-10-28T16:09:56;38.55;;;16.87;;
73951;SDS011;62304;47.662;18.324;2022-10-28T16:12:59;29.73;;;15.85;;
73951;SDS011;62304;47.662;18.324;2022-10-28T16:16:05;29.73;;;15.60;;
73951;SDS011;62304;47.662;18.324;2022-10-28T16:19:16;27.70;;;12.50;;
73951;SDS011;62304;47.662;18.324;2022-10-28T16:22:29;24.37;;;12.15;;
73951;SDS011;62304;47.662;18.324;2022-10-28T16:25:35;40.95;;;22.05;;
73951;SDS011;62304;47.662;18.324;2022-10-28T16:28:38;27.75;;;15.13;;
73951;SDS011;62304;47.662;18.324;2022-10-28T16:31:48;31.80;;;17.90;;
73951;SDS011;62304;47.662;18.324;2022-10-28T16:34:56;25.70;;;13.50;;
73951;SDS011;62304;47.662;18.324;2022-10-28T16:38:07;36.47;;;17.65;;
73951;SDS011;62304;47.662;18.324;2022-10-28T16:41:14;37.13;;;18.33;;
73951;SDS011;62304;47.662;18.324;2022-10-28T16:44:18;29.23;;;14.35;;
73951;SDS011;62304;47.662;18.324;2022-10-28T16:47:22;33.40;;;16.27;;
73951;SDS011;62304;47.662;18.324;2022-10-28T16:50:30;44.30;;;22.60;;
73951;SDS011;62304;47.662;18.324;2022-10-28T16:53:33;27.85;;;12.98;;
73951;SDS011;62304;47.662;18.324;2022-10-28T16:56:38;23.45;;;11.70;;
73951;SDS011;62304;47.662;18.324;2022-10-28T16:59:41;32.08;;;16.40;;
73951;SDS011;62304;47.662;18.324;2022-10-28T17:02:44;27.17;;;13.93;;
73951;SDS011;62304;47.662;18.324;2022-10-28T17:05:52;31.50;;;17.30;;
73951;SDS011;62304;47.662;18.324;2022-10-28T17:08:54;28.27;;;15.82;;
73951;SDS011;62304;47.662;18.324;2022-10-28T17:12:05;25.17;;;14.90;;
73951;SDS011;62304;47.662;18.324;2022-10-28T17:15:08;27.98;;;13.35;;
73951;SDS011;62304;47.662;18.324;2022-10-28T17:18:12;21.27;;;12.10;;
73951;SDS011;62304;47.662;18.324;2022-10-28T17:21:16;18.97;;;9.23;;
73951;SDS011;62304;47.662;18.324;2022-10-28T17:24:20;23.90;;;11.55;;
73951;SDS011;62304;47.662;18.324;2022-10-28T17:27:23;26.12;;;13.45;;
73951;SDS011;62304;47.662;18.324;2022-10-28T17:30:27;25.75;;;12.13;;
73951;SDS011;62304;47.662;18.324;2022-10-28T17:33:31;24.90;;;14.20;;
73951;SDS011;62304;47.662;18.324;2022-10-28T17:36:34;28.07;;;14.70;;
73951;SDS011;62304;47.662;18.324;2022-10-28T17:39:37;26.17;;;16.67;;
73951;SDS011;62304;47.662;18.324;2022-10-28T17:42:40;25.08;;;11.95;;
73951;SDS011;62304;47.662;18.324;2022-10-28T17:45:43;27.05;;;13.70;;
73951;SDS011;62304;47.662;18.324;2022-10-28T17:48:46;18.30;;;8.93;;
73951;SDS011;62304;47.662;18.324;2022-10-28T17:51:50;25.10;;;11.93;;
73951;SDS011;62304;47.662;18.324;2022-10-28T17:54:54;23.80;;;12.95;;
73951;SDS011;62304;47.662;18.324;2022-10-28T17:57:57;27.52;;;12.90;;
73951;SDS011;62304;47.662;18.324;2022-10-28T18:01:02;23.65;;;12.55;;
73951;SDS011;62304;47.662;18.324;2022-10-28T18:04:09;26.00;;;13.10;;
73951;SDS011;62304;47.662;18.324;2022-10-28T18:07:13;29.63;;;14.73;;
73951;SDS011;62304;47.662;18.324;2022-10-28T18:10:16;27.52;;;14.87;;
73951;SDS011;62304;47.662;18.324;2022-10-28T18:13:24;29.58;;;14.87;;
73951;SDS011;62304;47.662;18.324;2022-10-28T18:16:31;25.75;;;12.27;;
73951;SDS011;62304;47.662;18.324;2022-10-28T18:19:36;27.50;;;13.60;;
73951;SDS011;62304;47.662;18.324;2022-10-28T18:22:41;28.67;;;13.90;;
73951;SDS011;62304;47.662;18.324;2022-10-28T18:25:44;24.00;;;13.05;;
73951;SDS011;62304;47.662;18.324;2022-10-28T18:28:47;25.20;;;11.68;;
73951;SDS011;62304;47.662;18.324;2022-10-28T18:31:51;26.83;;;12.18;;
73951;SDS011;62304;47.662;18.324;2022-10-28T18:34:54;27.63;;;13.57;;
73951;SDS011;62304;47.662;18.324;2022-10-28T18:37:57;29.03;;;15.03;;
73951;SDS011;62304;47.662;18.324;2022-10-28T18:41:11;35.53;;;16.35;;
73951;SDS011;62304;47.662;18.324;2022-10-28T18:44:15;33.28;;;15.70;;
73951;SDS011;62304;47.662;18.324;2022-10-28T18:47:22;26.20;;;11.77;;
73951;SDS011;62304;47.662;18.324;2022-10-28T18:50:26;35.97;;;19.03;;
73951;SDS011;62304;47.662;18.324;2022-10-28T18:53:29;25.57;;;11.80;;
73951;SDS011;62304;47.662;18.324;2022-10-28T18:56:32;26.65;;;12.00;;
73951;SDS011;62304;47.662;18.324;2022-10-28T18:59:35;27.52;;;12.25;;
73951;SDS011;62304;47.662;18.324;2022-10-28T19:02:58;35.17;;;16.10;;
73951;SDS011;62304;47.662;18.324;2022-10-28T19:06:05;36.80;;;17.20;;
73951;SDS011;62304;47.662;18.324;2022-10-28T19:09:11;32.97;;;15.37;;
73951;SDS011;62304;47.662;18.324;2022-10-28T19:12:15;28.08;;;13.80;;
73951;SDS011;62304;47.662;18.324;2022-10-28T19:15:17;31.67;;;15.00;;
73951;SDS011;62304;47.662;18.324;2022-10-28T19:18:21;32.38;;;16.10;;
73951;SDS011;62304;47.662;18.324;2022-10-28T19:21:24;30.90;;;16.07;;
73951;SDS011;62304;47.662;18.324;2022-10-28T19:24:28;34.20;;;17.10;;
73951;SDS011;62304;47.662;18.324;2022-10-28T19:27:32;30.00;;;14.48;;
73951;SDS011;62304;47.662;18.324;2022-10-28T19:30:35;33.22;;;15.05;;
73951;SDS011;62304;47.662;18.324;2022-10-28T19:33:38;26.75;;;14.07;;
73951;SDS011;62304;47.662;18.324;2022-10-28T19:36:43;32.03;;;15.23;;
73951;SDS011;62304;47.662;18.324;2022-10-28T19:39:46;31.27;;;13.97;;
73951;SDS011;62304;47.662;18.324;2022-10-28T19:42:51;30.20;;;14.52;;
73951;SDS011;62304;47.662;18.324;2022-10-28T19:46:04;32.40;;;15.20;;
73951;SDS011;62304;47.662;18.324;2022-10-28T19:49:14;31.35;;;15.80;;
73951;SDS011;62304;47.662;18.324;2022-10-28T19:52:17;30.80;;;14.37;;
73951;SDS011;62304;47.662;18.324;2022-10-28T19:55:20;29.87;;;14.87;;
73951;SDS011;62304;47.662;18.324;2022-10-28T19:58:23;31.50;;;14.87;;
73951;SDS011;62304;47.662;18.324;2022-10-28T20:01:28;38.92;;;17.98;;
73951;SDS011;62304;47.662;18.324;2022-10-28T20:04:33;36.58;;;17.20;;
73951;SDS011;62304;47.662;18.324;2022-10-28T20:07:37;39.40;;;18.00;;
73951;SDS011;62304;47.662;18.324;2022-10-28T20:10:40;43.10;;;19.63;;
73951;SDS011;62304;47.662;18.324;2022-10-28T20:13:42;54.53;;;22.23;;
73951;SDS011;62304;47.662;18.324;2022-10-28T20:16:47;44.55;;;18.77;;
73951;SDS011;62304;47.662;18.324;2022-10-28T20:19:50;59.08;;;21.83;;
73951;SDS011;62304;47.662;18.324;2022-10-28T20:22:55;49.13;;;20.90;;
73951;SDS011;62304;47.662;18.324;2022-10-28T20:26:00;48.60;;;23.13;;
73951;SDS011;62304;47.662;18.324;2022-10-28T20:29:04;39.58;;;18.12;;